Cecil, Georgia
Current Conditions -  °F | °C
As of 8:58 AM on Thursday 30 Oct 2014 (Local Time) from KVAD Reporting Station
Overcast Overcast  
Wind Chill: 61°   Ceiling: 3000
Heat Index: 61°   Visibility: 10mi
Dew Point: 48°   Wind: 7mph
Humidity: 63%   Direction: 360°N
Pressure: 30.02"   Gusts: NA
Location:  31.05°N, 83.39°W
Report Text: KVAD 301258Z AUTO 36006KT 10SM BKN030 OVC130 16/09 A3002 RMK AO2 SLP167 T01610091 $
Loading
Personal Weather Stations






























Interactive Weather Map
Tropical Storm Tracking
New forecast layout! Learn more

10-Day Weather Forecast

Advertisements
Track Severe Weather on mobile